»·PEaware :: N325HC KIFP-KIFP

N325HC :: KIFP-KIFP

FLIGHT INFORMATION

Flight Status: Arrived
Operator: Privately registered:
United States
More flights under this callsign
Pilot: Ian H. (8262)
Aircraft: Unknown
(0)
More flights by this aircraft type
Origin: KIFP Laughlin/Bullhead Intl
United States
Destination: KIFP Laughlin/Bullhead Intl
United States
More flights between these airports :: More routes between these airports
Route: +EED
File this flight plan on PilotEdge
Remarks: RNAV RWY 34 Approach Practice
Altitude:
(Current/Filed)
7,000ft
Speed:
(Current/Filed)
150kts
Departed: 11-Jul-18 01:45 PM
Arrived: 11-Jul-18 02:43 PM
Distance/Time
Traveled:
0nm/0:58
Distance/Time
To Go:
Arrived

Flight Plot

Page will automatically refresh every two minutes.


Map Options




Map Legend


Flown Route
Filed Route
Departure Airport
Arrival Airport
Navaid (VOR, NDB)
Fix

Horizontal Profiles

Position Reports

Time Latitude Longitude Heading Altitude Ground
Speed
11-Jul-18 13:39 35.164928 -114.556690 266 662ft 0kts
11-Jul-18 13:40 35.164928 -114.556690 266 662ft 0kts
11-Jul-18 13:41 35.164928 -114.556690 266 662ft 0kts
11-Jul-18 13:42 35.164928 -114.556690 266 662ft 0kts
11-Jul-18 13:43 35.165106 -114.558409 298 644ft 13kts
11-Jul-18 13:44 35.166116 -114.558998 296 634ft 0kts
11-Jul-18 13:45 35.166116 -114.558998 296 634ft 0kts
11-Jul-18 13:46 35.157631 -114.559641 174 733ft 88kts
11-Jul-18 13:47 35.133782 -114.551706 165 2117ft 87kts
11-Jul-18 13:48 35.109471 -114.544768 170 3353ft 92kts
11-Jul-18 13:49 35.084257 -114.539427 171 4550ft 93kts
11-Jul-18 13:50 35.059241 -114.534445 171 5640ft 94kts
11-Jul-18 13:51 35.033165 -114.529293 170 6675ft 97kts
11-Jul-18 13:52 35.002392 -114.523229 169 7113ft 144kts
11-Jul-18 13:53 34.959189 -114.514407 169 7110ft 170kts
11-Jul-18 13:54 34.911475 -114.504673 169 7113ft 176kts
11-Jul-18 13:55 34.862733 -114.494705 168 7118ft 179kts
11-Jul-18 13:56 34.820760 -114.510019 232 7115ft 186kts
11-Jul-18 13:57 34.782772 -114.493132 129 7117ft 175kts
11-Jul-18 13:58 34.808303 -114.467283 323 7111ft 187kts
11-Jul-18 13:59 34.854404 -114.496340 338 7118ft 188kts
11-Jul-18 14:00 34.902738 -114.520418 339 7116ft 189kts
11-Jul-18 14:01 34.951741 -114.544559 338 7111ft 190kts
11-Jul-18 14:02 34.950297 -114.586178 174 6600ft 161kts
11-Jul-18 14:03 34.907431 -114.578600 172 5900ft 153kts
11-Jul-18 14:04 34.865579 -114.574195 166 5194ft 149kts
11-Jul-18 14:05 34.864236 -114.538947 15 4496ft 149kts
11-Jul-18 14:06 34.901304 -114.538263 41 4410ft 115kts
11-Jul-18 14:07 34.924516 -114.529012 335 4411ft 104kts
11-Jul-18 14:08 34.951231 -114.544199 345 4418ft 121kts
11-Jul-18 14:09 34.994376 -114.547624 357 3590ft 169kts
11-Jul-18 14:10 35.035513 -114.550147 356 2999ft 130kts
11-Jul-18 14:11 35.069887 -114.552626 354 2283ft 119kts
11-Jul-18 14:12 35.102446 -114.555045 354 1588ft 116kts
11-Jul-18 14:13 35.138731 -114.557615 2 2042ft 144kts
11-Jul-18 14:14 35.173997 -114.558058 356 3490ft 124kts
11-Jul-18 14:15 35.208589 -114.559936 356 4676ft 126kts
11-Jul-18 14:16 35.243650 -114.562345 356 5818ft 128kts
11-Jul-18 14:17 35.279353 -114.565282 356 6893ft 130kts
11-Jul-18 14:18 35.316945 -114.567255 13 7509ft 157kts
11-Jul-18 14:19 35.325213 -114.528315 156 7501ft 168kts
11-Jul-18 14:20 35.277254 -114.523102 175 7300ft 173kts
11-Jul-18 14:21 35.229198 -114.518482 174 6999ft 178kts
11-Jul-18 14:22 35.180847 -114.513813 174 6998ft 173kts
11-Jul-18 14:23 35.133036 -114.509244 174 7001ft 172kts
11-Jul-18 14:24 35.085387 -114.504684 174 7000ft 172kts
11-Jul-18 14:25 35.037933 -114.500175 175 7000ft 172kts
11-Jul-18 14:26 34.990187 -114.495759 174 7004ft 172kts
11-Jul-18 14:27 34.942455 -114.491421 173 7009ft 173kts
11-Jul-18 14:28 34.894139 -114.486965 173 7015ft 175kts
11-Jul-18 14:29 34.845556 -114.482399 173 7017ft 176kts
11-Jul-18 14:30 34.796430 -114.477542 173 6992ft 180kts
11-Jul-18 14:31 34.746206 -114.472685 174 6990ft 181kts
11-Jul-18 14:32 34.725149 -114.510889 309 6985ft 180kts
11-Jul-18 14:33 34.769789 -114.512589 358 6706ft 154kts
11-Jul-18 14:34 34.810036 -114.518411 352 6105ft 155kts
11-Jul-18 14:35 34.856342 -114.526742 352 5525ft 177kts
11-Jul-18 14:36 34.905868 -114.535818 351 4928ft 181kts
11-Jul-18 14:37 34.955230 -114.543628 354 4322ft 167kts
11-Jul-18 14:38 34.995054 -114.547990 352 3486ft 129kts
11-Jul-18 14:39 35.028924 -114.549445 359 2873ft 111kts
11-Jul-18 14:40 35.060409 -114.553834 1 2616ft 133kts
11-Jul-18 14:41 35.100844 -114.556971 344 1710ft 150kts
11-Jul-18 14:42 35.139017 -114.570522 335 1658ft 129kts
11-Jul-18 14:43 35.171810 -114.571794 60 1156ft 121kts
11-Jul-18 14:44 35.159136 -114.559789 174 638ft 0kts
11-Jul-18 14:45 35.153597 -114.559270 220 652ft 0kts

Navigation Log

Ident Type
1. KIFP Airport
2. EED Navaid
3. KIFP Airport